createdAt,value
2023-04-11T00:02:00.227Z,2.73
2023-04-11T00:04:28.073Z,5.70
2023-04-11T00:06:55.615Z,4.50
2023-04-11T00:09:23.255Z,6.87
2023-04-11T00:11:50.728Z,7.40
2023-04-11T00:14:18.302Z,4.93
2023-04-11T00:16:45.822Z,4.23
2023-04-11T00:19:13.401Z,7.40
2023-04-11T00:21:40.906Z,11.93
2023-04-11T00:24:08.863Z,6.53
2023-04-11T00:26:36.370Z,7.43
2023-04-11T00:29:05.081Z,5.83
2023-04-11T00:31:32.905Z,7.30
2023-04-11T00:34:00.441Z,6.90
2023-04-11T00:36:28.004Z,10.43
2023-04-11T00:38:55.798Z,7.83
2023-04-11T00:41:23.518Z,9.37
2023-04-11T00:43:51.190Z,9.17
2023-04-11T00:46:18.950Z,13.23
2023-04-11T00:48:46.556Z,9.43
2023-04-11T00:51:15.316Z,13.40
2023-04-11T00:53:43.284Z,13.23
2023-04-11T00:56:10.853Z,10.17
2023-04-11T00:58:39.132Z,11.00
2023-04-11T01:01:07.474Z,13.77
2023-04-11T01:03:35.671Z,12.60
2023-04-11T01:06:03.896Z,12.23
2023-04-11T01:08:31.502Z,9.27
2023-04-11T01:10:59.008Z,9.40
2023-04-11T01:13:26.598Z,9.67
2023-04-11T01:15:54.139Z,8.37
2023-04-11T01:18:21.725Z,16.27
2023-04-11T01:20:49.298Z,12.00
2023-04-11T01:23:21.606Z,12.37
2023-04-11T01:25:49.410Z,9.30
2023-04-11T01:28:17.028Z,14.07
2023-04-11T01:30:44.615Z,12.50
2023-04-11T01:33:12.457Z,15.03
2023-04-11T01:35:40.272Z,14.83
2023-04-11T01:38:08.105Z,10.87
2023-04-11T01:40:35.991Z,17.03
2023-04-11T01:43:03.604Z,19.03
2023-04-11T01:45:32.057Z,14.80
2023-04-11T01:47:59.758Z,15.47
2023-04-11T01:50:27.563Z,11.63
2023-04-11T01:52:55.232Z,13.50
2023-04-11T01:55:22.808Z,15.63
2023-04-11T01:57:50.350Z,22.13
2023-04-11T02:00:18.096Z,15.67
2023-04-11T02:02:45.695Z,15.93
2023-04-11T02:05:13.434Z,14.47
2023-04-11T02:07:40.915Z,16.53
2023-04-11T02:10:08.746Z,15.73
2023-04-11T02:12:36.240Z,18.47
2023-04-11T02:15:03.889Z,15.67
2023-04-11T02:17:31.486Z,13.40
2023-04-11T02:19:59.097Z,17.90
2023-04-11T02:22:26.640Z,15.17
2023-04-11T02:24:54.224Z,20.27
2023-04-11T02:27:21.717Z,15.87
2023-04-11T02:29:49.340Z,19.53
2023-04-11T02:32:16.932Z,15.03
2023-04-11T02:34:44.760Z,20.33
2023-04-11T02:37:12.290Z,18.40
2023-04-11T02:39:39.837Z,24.97
2023-04-11T02:42:07.326Z,16.13
2023-04-11T02:44:36.792Z,12.20
2023-04-11T02:47:04.465Z,12.97
2023-04-11T02:49:31.998Z,20.47
2023-04-11T02:52:01.212Z,16.40
2023-04-11T02:54:28.748Z,12.47
2023-04-11T02:56:56.304Z,20.73
2023-04-11T02:59:23.864Z,23.97
2023-04-11T03:01:51.540Z,22.63
2023-04-11T03:04:19.118Z,17.37
2023-04-11T03:06:46.640Z,16.50
2023-04-11T03:09:14.153Z,23.47
2023-04-11T03:11:41.717Z,17.50
2023-04-11T03:14:09.258Z,16.80
2023-04-11T03:16:36.880Z,17.73
2023-04-11T03:19:04.389Z,20.97
2023-04-11T03:21:31.929Z,14.67
2023-04-11T03:23:59.476Z,20.33
2023-04-11T03:26:27.105Z,23.90
2023-04-11T03:28:55.157Z,19.87
2023-04-11T03:31:23.016Z,19.27
2023-04-11T03:33:50.581Z,19.63
2023-04-11T03:36:18.186Z,18.63
2023-04-11T03:38:45.692Z,21.53
2023-04-11T03:41:13.324Z,16.50
2023-04-11T03:43:40.849Z,21.10
2023-04-11T03:46:08.430Z,16.83
2023-04-11T03:48:35.978Z,26.53
2023-04-11T03:51:03.888Z,22.07
2023-04-11T03:53:31.986Z,19.00
2023-04-11T03:55:59.654Z,14.37
2023-04-11T03:58:27.188Z,21.30
2023-04-11T04:00:54.703Z,19.70
2023-04-11T04:03:22.312Z,12.07
2023-04-11T04:05:50.033Z,12.73
2023-04-11T04:08:17.548Z,15.07
2023-04-11T04:10:45.158Z,14.60
2023-04-11T04:13:12.662Z,14.27
2023-04-11T04:15:40.238Z,19.07
2023-04-11T04:18:07.834Z,16.60
2023-04-11T04:20:35.399Z,18.27
2023-04-11T04:23:02.908Z,15.40
2023-04-11T04:25:30.527Z,20.50
2023-04-11T04:27:58.273Z,17.50
2023-04-11T04:30:25.911Z,16.83
2023-04-11T04:32:53.472Z,14.53
2023-04-11T04:35:21.227Z,21.17
2023-04-11T04:37:48.711Z,10.97
2023-04-11T04:40:16.304Z,20.80
2023-04-11T04:42:43.807Z,12.27
2023-04-11T04:45:11.488Z,22.20
2023-04-11T04:47:39.022Z,17.00
2023-04-11T04:50:06.945Z,12.77
2023-04-11T04:52:34.488Z,16.63
2023-04-11T04:55:02.076Z,12.10
2023-04-11T04:57:30.101Z,11.77
2023-04-11T04:59:57.884Z,10.67
2023-04-11T05:02:25.635Z,14.83
2023-04-11T05:04:54.719Z,15.30
2023-04-11T05:07:22.401Z,19.40
2023-04-11T05:09:50.016Z,13.33
2023-04-11T05:12:17.716Z,16.27
2023-04-11T05:14:45.452Z,15.43
2023-04-11T05:17:12.967Z,15.93
2023-04-11T05:19:40.512Z,11.17
2023-04-11T05:22:08.090Z,13.47
2023-04-11T05:24:35.703Z,13.27
2023-04-11T05:27:03.294Z,10.83
2023-04-11T05:29:31.159Z,15.00
2023-04-11T05:31:58.673Z,20.07
2023-04-11T05:34:26.184Z,19.70
2023-04-11T05:36:53.712Z,8.47
2023-04-11T05:39:22.474Z,13.30
2023-04-11T05:41:50.033Z,13.77
2023-04-11T05:44:17.564Z,17.13
2023-04-11T05:46:45.090Z,16.30
2023-04-11T05:49:15.662Z,13.00
2023-04-11T05:51:43.232Z,13.43
2023-04-11T05:54:10.780Z,16.20
2023-04-11T05:56:38.466Z,16.37
2023-04-11T05:59:06.497Z,14.33
2023-04-11T06:01:36.225Z,15.30
2023-04-11T06:04:04.501Z,17.80
2023-04-11T06:06:32.238Z,16.70
2023-04-11T06:09:00.240Z,16.40
2023-04-11T06:11:27.824Z,10.73
2023-04-11T06:13:55.489Z,16.03
2023-04-11T06:16:26.293Z,12.53
2023-04-11T06:18:53.995Z,12.50
2023-04-11T06:21:21.451Z,15.73
2023-04-11T06:23:48.998Z,14.00
2023-04-11T06:26:16.500Z,15.50
2023-04-11T06:28:44.144Z,19.53
2023-04-11T06:31:11.687Z,18.17
2023-04-11T06:33:39.274Z,17.83
2023-04-11T06:36:07.012Z,12.33
2023-04-11T06:38:34.545Z,15.67
2023-04-11T06:41:02.071Z,12.17
2023-04-11T06:43:29.698Z,11.43
2023-04-11T06:45:57.174Z,11.43
2023-04-11T06:48:24.717Z,14.57
2023-04-11T06:50:52.173Z,24.57
2023-04-11T06:53:19.754Z,19.20
2023-04-11T06:55:50.474Z,14.63
2023-04-11T06:58:17.985Z,15.20
2023-04-11T07:00:45.544Z,16.90
2023-04-11T07:03:13.221Z,13.83
2023-04-11T07:05:40.784Z,15.57
2023-04-11T07:08:08.333Z,15.47
2023-04-11T07:10:35.930Z,20.80
2023-04-11T07:13:03.563Z,13.03
2023-04-11T07:15:31.108Z,9.80
2023-04-11T07:17:58.715Z,14.00
2023-04-11T07:20:26.308Z,16.20
2023-04-11T07:22:53.918Z,7.10
2023-04-11T07:25:21.491Z,12.43
2023-04-11T07:27:50.646Z,9.77
2023-04-11T07:30:18.204Z,16.33
2023-04-11T07:32:45.893Z,11.87
2023-04-11T07:35:13.492Z,8.80
2023-04-11T07:37:41.024Z,15.23
2023-04-11T07:40:08.890Z,14.73
2023-04-11T07:42:36.458Z,9.67
2023-04-11T07:45:04.149Z,15.50
2023-04-11T07:47:31.724Z,9.67
2023-04-11T07:49:59.327Z,10.53
2023-04-11T07:52:26.892Z,10.33
2023-04-11T07:54:54.380Z,9.00
2023-04-11T07:57:22.033Z,10.83
2023-04-11T07:59:49.529Z,10.77
2023-04-11T08:02:17.402Z,10.83
2023-04-11T08:04:45.177Z,11.40
2023-04-11T08:07:13.086Z,9.67
2023-04-11T08:09:40.655Z,13.80
2023-04-11T08:12:08.248Z,14.03
2023-04-11T08:14:36.224Z,12.17
2023-04-11T08:17:06.640Z,10.13
2023-04-11T08:19:37.690Z,9.13
2023-04-11T08:22:05.234Z,10.23
2023-04-11T08:24:32.802Z,8.57
2023-04-11T08:27:00.351Z,5.03
2023-04-11T08:29:27.900Z,6.93
2023-04-11T08:31:55.398Z,5.83
2023-04-11T08:34:23.007Z,9.53
2023-04-11T08:36:50.677Z,9.10
2023-04-11T08:39:18.261Z,6.80
2023-04-11T08:41:45.871Z,6.60
2023-04-11T08:44:13.536Z,9.80
2023-04-11T08:46:42.183Z,7.40
2023-04-11T08:49:09.805Z,9.57
2023-04-11T08:51:37.517Z,7.97
2023-04-11T08:54:05.957Z,5.30
2023-04-11T08:56:34.576Z,6.70
2023-04-11T08:59:02.632Z,7.97
2023-04-11T09:01:30.268Z,9.67
2023-04-11T09:03:58.940Z,9.80
2023-04-11T09:06:27.758Z,5.13
2023-04-11T09:08:56.228Z,5.37
2023-04-11T09:11:23.731Z,10.27
2023-04-11T09:14:05.835Z,9.20
2023-04-11T09:16:33.558Z,6.33
2023-04-11T09:19:01.116Z,6.70
2023-04-11T09:21:28.703Z,5.00
2023-04-11T09:24:28.557Z,6.57
2023-04-11T09:27:15.637Z,10.17
2023-04-11T09:29:46.898Z,7.67
2023-04-11T09:32:26.641Z,7.43
2023-04-11T09:35:07.795Z,9.63
2023-04-11T09:37:45.332Z,7.70
2023-04-11T09:40:13.488Z,6.17
2023-04-11T09:42:41.473Z,12.70
2023-04-11T09:45:19.050Z,9.37
2023-04-11T09:47:47.181Z,6.00
2023-04-11T09:50:14.962Z,9.67
2023-04-11T09:52:43.400Z,5.93
2023-04-11T09:55:11.692Z,5.43
2023-04-11T09:57:43.274Z,12.53
2023-04-11T10:00:11.047Z,8.50
2023-04-11T10:02:38.700Z,10.07
2023-04-11T10:05:06.955Z,5.07
2023-04-11T10:07:35.885Z,9.20
2023-04-11T10:10:03.688Z,6.43
2023-04-11T10:12:34.166Z,8.43
2023-04-11T10:15:08.054Z,7.00
2023-04-11T10:17:36.405Z,12.30
2023-04-11T10:20:24.005Z,8.17
2023-04-11T10:22:51.505Z,8.97
2023-04-11T10:25:22.356Z,8.53
2023-04-11T10:27:51.232Z,10.67
2023-04-11T10:30:18.732Z,5.83
2023-04-11T10:33:05.243Z,8.63
2023-04-11T10:35:32.835Z,7.60
2023-04-11T10:38:00.430Z,9.73
2023-04-11T10:40:28.056Z,6.47
2023-04-11T10:42:55.608Z,4.80
2023-04-11T10:45:29.989Z,8.83
2023-04-11T10:47:57.631Z,5.97
2023-04-11T10:50:28.265Z,8.27
2023-04-11T10:52:59.745Z,9.53
2023-04-11T10:55:28.210Z,5.73
2023-04-11T10:58:31.135Z,4.17
2023-04-11T11:01:01.261Z,6.50
2023-04-11T11:03:30.972Z,7.63
2023-04-11T11:06:00.650Z,4.77
2023-04-11T11:08:32.370Z,8.83
2023-04-11T11:11:00.869Z,5.40
2023-04-11T11:13:41.620Z,7.17
2023-04-11T11:16:09.864Z,7.03
2023-04-11T11:18:37.711Z,5.87
2023-04-11T11:21:07.403Z,8.63
2023-04-11T11:23:36.923Z,15.20
2023-04-11T11:26:04.484Z,6.90
2023-04-11T11:28:32.068Z,11.97
2023-04-11T11:30:59.547Z,6.17
2023-04-11T11:33:27.126Z,6.10
2023-04-11T11:35:56.652Z,8.83
2023-04-11T11:38:26.439Z,7.70
2023-04-11T11:40:54.139Z,6.37
2023-04-11T11:43:21.980Z,5.47
2023-04-11T11:46:08.461Z,6.90
2023-04-11T11:48:36.693Z,5.33
2023-04-11T11:51:04.310Z,4.53
2023-04-11T11:53:34.939Z,8.43
2023-04-11T11:56:12.542Z,8.93
2023-04-11T11:58:43.623Z,6.37
2023-04-11T12:03:41.814Z,5.97
2023-04-11T12:06:10.328Z,8.40
2023-04-11T12:08:41.128Z,4.50
2023-04-11T12:11:11.329Z,4.13
2023-04-11T12:13:38.887Z,4.57
2023-04-11T12:16:06.782Z,4.53
2023-04-11T12:18:34.444Z,4.43
2023-04-11T12:21:02.268Z,7.80
2023-04-11T12:23:29.929Z,3.97
2023-04-11T12:25:57.649Z,4.37
2023-04-11T12:28:25.242Z,5.57
2023-04-11T12:30:52.778Z,8.83
2023-04-11T12:33:20.464Z,5.30
2023-04-11T12:35:48.110Z,5.47
2023-04-11T12:38:17.748Z,6.63
2023-04-11T12:40:46.299Z,6.03
2023-04-11T12:43:13.904Z,4.50
2023-04-11T12:45:41.470Z,5.63
2023-04-11T12:48:09.128Z,5.67
2023-04-11T12:50:36.712Z,5.57
2023-04-11T12:53:04.211Z,5.47
2023-04-11T12:55:31.818Z,6.57
2023-04-11T12:57:59.351Z,4.87
2023-04-11T13:00:27.076Z,5.33
2023-04-11T13:02:54.735Z,5.23
2023-04-11T13:05:22.679Z,6.77
2023-04-11T13:07:50.218Z,5.67
2023-04-11T13:10:17.810Z,4.83
2023-04-11T13:12:45.995Z,6.70
2023-04-11T13:15:14.339Z,7.23
2023-04-11T13:17:41.925Z,6.93
2023-04-11T13:20:10.695Z,6.17
2023-04-11T13:22:39.055Z,5.07
2023-04-11T13:25:06.907Z,6.20
2023-04-11T13:27:34.666Z,7.07
2023-04-11T13:30:02.388Z,4.97
2023-04-11T13:32:30.024Z,5.17
2023-04-11T13:34:57.687Z,4.47
2023-04-11T13:37:25.288Z,4.80
2023-04-11T13:39:52.894Z,5.00
2023-04-11T13:42:20.406Z,4.50
2023-04-11T13:44:48.010Z,5.23
2023-04-11T13:47:15.540Z,4.73
2023-04-11T13:49:43.163Z,3.73
2023-04-11T13:52:10.717Z,3.83
2023-04-11T13:54:38.254Z,4.77
2023-04-11T13:57:05.866Z,5.00
2023-04-11T13:59:33.389Z,3.40
2023-04-11T14:02:00.985Z,4.93
2023-04-11T14:04:28.722Z,5.50
2023-04-11T14:06:56.297Z,4.47
2023-04-11T14:09:23.889Z,3.83
2023-04-11T14:11:51.479Z,9.83
2023-04-11T14:14:19.044Z,3.30
2023-04-11T14:16:46.692Z,5.40
2023-04-11T14:19:14.380Z,6.00
2023-04-11T14:21:41.926Z,4.40
2023-04-11T14:24:09.724Z,4.90
2023-04-11T14:26:37.271Z,6.33
2023-04-11T14:29:04.917Z,7.10
2023-04-11T14:31:32.726Z,4.80
2023-04-11T14:34:00.511Z,5.67
2023-04-11T14:36:28.591Z,5.97
2023-04-11T14:38:57.378Z,6.57
2023-04-11T14:41:24.922Z,5.53
2023-04-11T14:43:52.588Z,3.50
2023-04-11T14:46:20.137Z,7.37
2023-04-11T14:48:47.851Z,3.30
2023-04-11T14:51:15.405Z,7.43
2023-04-11T14:53:43.003Z,5.87
2023-04-11T14:56:10.616Z,3.43
2023-04-11T14:58:38.295Z,7.53
2023-04-11T15:01:05.849Z,6.73
2023-04-11T15:03:33.730Z,8.27
2023-04-11T15:06:01.487Z,3.53
2023-04-11T15:08:29.093Z,6.30
2023-04-11T15:10:56.730Z,6.90
2023-04-11T15:13:24.397Z,4.30
2023-04-11T15:15:51.967Z,6.77
2023-04-11T15:18:22.761Z,4.97
2023-04-11T15:20:50.728Z,7.40
2023-04-11T15:23:18.892Z,5.03
2023-04-11T15:25:56.323Z,5.63
2023-04-11T15:28:24.879Z,5.67
2023-04-11T15:30:53.299Z,8.67
2023-04-11T15:33:21.349Z,8.33
2023-04-11T15:35:48.954Z,8.70
2023-04-11T15:38:16.858Z,7.17
2023-04-11T15:40:44.450Z,4.27
2023-04-11T15:43:12.059Z,6.87
2023-04-11T15:45:39.718Z,5.30
2023-04-11T15:48:07.350Z,7.37
2023-04-11T15:50:34.926Z,9.73
2023-04-11T15:53:02.457Z,5.40
2023-04-11T15:55:30.034Z,2.67
2023-04-11T15:57:57.647Z,3.90
2023-04-11T16:00:25.269Z,3.27
2023-04-11T16:02:52.986Z,5.03
2023-04-11T16:05:21.021Z,4.83
2023-04-11T16:07:48.776Z,4.87
2023-04-11T16:10:16.381Z,7.03
2023-04-11T16:12:43.947Z,8.00
2023-04-11T16:15:11.487Z,5.57
2023-04-11T16:17:39.115Z,5.83
2023-04-11T16:20:07.090Z,4.47
2023-04-11T16:22:35.300Z,5.07
2023-04-11T16:25:06.642Z,5.63
2023-04-11T16:27:34.302Z,7.73
2023-04-11T16:30:01.985Z,5.60
2023-04-11T16:32:29.665Z,7.80
2023-04-11T16:34:57.299Z,9.30
2023-04-11T16:37:25.169Z,4.73
2023-04-11T16:39:52.699Z,8.07
2023-04-11T16:42:20.277Z,4.57
2023-04-11T16:44:47.885Z,5.67
2023-04-11T16:47:15.438Z,7.57
2023-04-11T16:49:44.399Z,6.93
2023-04-11T16:52:13.224Z,6.40
2023-04-11T16:54:40.754Z,9.03
2023-04-11T16:57:08.309Z,7.20
2023-04-11T16:59:35.810Z,7.60
2023-04-11T17:02:03.485Z,7.50
2023-04-11T17:04:31.280Z,8.87
2023-04-11T17:06:59.118Z,6.30
2023-04-11T17:09:26.660Z,7.00
2023-04-11T17:11:54.184Z,5.80
2023-04-11T17:14:21.732Z,10.03
2023-04-11T17:16:49.365Z,12.47
2023-04-11T17:19:16.965Z,4.97
2023-04-11T17:21:44.529Z,10.57
2023-04-11T17:24:12.102Z,9.50
2023-04-11T17:26:39.683Z,5.67
2023-04-11T17:29:07.286Z,6.97
2023-04-11T17:31:34.873Z,5.87
2023-04-11T17:34:02.357Z,9.30
2023-04-11T17:36:29.940Z,5.33
2023-04-11T17:38:57.516Z,6.27
2023-04-11T17:41:25.098Z,7.77
2023-04-11T17:43:55.359Z,4.83
2023-04-11T17:46:23.110Z,6.33
2023-04-11T17:48:50.713Z,8.53
2023-04-11T17:51:18.265Z,4.47
2023-04-11T17:53:45.827Z,6.63
2023-04-11T17:56:13.398Z,9.53
2023-04-11T17:58:41.049Z,6.67
2023-04-11T18:01:09.403Z,6.93
2023-04-11T18:03:37.369Z,8.80
2023-04-11T18:06:05.161Z,10.27
2023-04-11T18:08:49.246Z,3.60
2023-04-11T18:11:18.436Z,6.33
2023-04-11T18:13:48.297Z,4.63
2023-04-11T18:16:18.199Z,5.07
2023-04-11T18:18:46.597Z,7.70
2023-04-11T18:21:14.472Z,3.23
2023-04-11T18:23:42.086Z,8.10
2023-04-11T18:26:10.904Z,3.90
2023-04-11T18:28:38.394Z,7.57
2023-04-11T18:31:06.196Z,6.40
2023-04-11T18:33:35.780Z,9.03
2023-04-11T18:36:03.617Z,6.30
2023-04-11T18:38:31.208Z,8.50
2023-04-11T18:41:01.612Z,3.13
2023-04-11T18:43:32.991Z,7.83
2023-04-11T18:46:01.777Z,7.90
2023-04-11T18:48:29.506Z,12.07
2023-04-11T18:51:02.907Z,3.53
2023-04-11T18:53:30.572Z,9.17
2023-04-11T18:55:58.107Z,6.07
2023-04-11T18:58:26.748Z,11.13
2023-04-11T19:00:55.678Z,2.50
2023-04-11T19:03:23.513Z,6.20
2023-04-11T19:05:51.914Z,11.53
2023-04-11T19:08:19.541Z,7.70
2023-04-11T19:10:47.111Z,5.10
2023-04-11T19:13:14.603Z,4.43
2023-04-11T19:15:42.186Z,8.97
2023-04-11T19:18:09.722Z,7.53
2023-04-11T19:20:38.919Z,4.07
2023-04-11T19:23:09.489Z,5.57
2023-04-11T19:25:37.118Z,9.57
2023-04-11T19:28:04.654Z,5.83
2023-04-11T19:30:32.331Z,3.50
2023-04-11T19:32:59.867Z,8.30
2023-04-11T19:35:27.581Z,6.20
2023-04-11T19:37:55.096Z,9.03
2023-04-11T19:40:22.712Z,8.67
2023-04-11T19:42:50.382Z,11.07
2023-04-11T19:45:17.977Z,5.53
2023-04-11T19:47:45.586Z,9.63
2023-04-11T19:50:13.494Z,8.73
2023-04-11T19:52:41.559Z,9.53
2023-04-11T19:55:09.501Z,9.90
2023-04-11T19:57:37.064Z,9.67
2023-04-11T20:00:05.066Z,7.87
2023-04-11T20:02:32.688Z,10.23
2023-04-11T20:05:00.371Z,6.43
2023-04-11T20:07:27.949Z,8.27
2023-04-11T20:09:55.516Z,7.83
2023-04-11T20:12:23.183Z,7.90
2023-04-11T20:14:50.844Z,6.37
2023-04-11T20:17:18.417Z,6.23
2023-04-11T20:19:46.053Z,9.67
2023-04-11T20:22:13.670Z,6.50
2023-04-11T20:24:41.225Z,7.10
2023-04-11T20:27:08.785Z,6.10
2023-04-11T20:29:36.394Z,6.53
2023-04-11T20:32:04.026Z,8.10
2023-04-11T20:34:31.630Z,6.23
2023-04-11T20:36:59.485Z,6.97
2023-04-11T20:39:27.715Z,8.70
2023-04-11T20:41:55.300Z,8.73
2023-04-11T20:44:23.314Z,8.07
2023-04-11T20:46:51.061Z,7.43
2023-04-11T20:49:18.634Z,7.63
2023-04-11T20:51:51.840Z,8.43
2023-04-11T20:54:19.398Z,9.23
2023-04-11T20:56:46.960Z,8.53
2023-04-11T20:59:14.598Z,4.87
2023-04-11T21:01:42.276Z,8.97
2023-04-11T21:04:10.340Z,6.40
2023-04-11T21:06:37.949Z,14.10
2023-04-11T21:09:05.561Z,10.67
2023-04-11T21:11:33.439Z,6.87
2023-04-11T21:14:01.028Z,5.97
2023-04-11T21:16:28.632Z,9.90
2023-04-11T21:18:56.210Z,7.50
2023-04-11T21:21:23.778Z,10.30
2023-04-11T21:23:51.345Z,7.17
2023-04-11T21:26:19.089Z,8.33
2023-04-11T21:28:46.643Z,4.50
2023-04-11T21:31:14.157Z,11.67
2023-04-11T21:33:41.749Z,11.37
2023-04-11T21:36:09.653Z,8.93
2023-04-11T21:38:37.339Z,9.33
2023-04-11T21:41:04.838Z,6.43
2023-04-11T21:43:32.419Z,8.10
2023-04-11T21:46:00.158Z,5.30
2023-04-11T21:48:27.718Z,8.93
2023-04-11T21:50:55.243Z,5.90
2023-04-11T21:53:22.829Z,5.37
2023-04-11T21:55:50.434Z,7.40
2023-04-11T21:58:28.689Z,8.87
2023-04-11T22:00:57.642Z,6.83
2023-04-11T22:03:25.434Z,11.00
2023-04-11T22:05:53.333Z,9.00
2023-04-11T22:08:22.826Z,7.03
2023-04-11T22:10:50.485Z,7.23
2023-04-11T22:13:19.345Z,7.57
2023-04-11T22:15:47.290Z,8.53
2023-04-11T22:18:14.898Z,8.83
2023-04-11T22:20:43.840Z,5.83
2023-04-11T22:23:11.943Z,8.97
2023-04-11T22:25:41.365Z,6.53
2023-04-11T22:28:09.282Z,5.00
2023-04-11T22:30:36.774Z,9.30
2023-04-11T22:33:04.434Z,7.53
2023-04-11T22:35:33.227Z,9.57
2023-04-11T22:38:00.779Z,6.40
2023-04-11T22:40:28.345Z,10.10
2023-04-11T22:42:55.896Z,9.63
2023-04-11T22:45:24.076Z,6.67
2023-04-11T22:47:51.623Z,10.00
2023-04-11T22:50:19.280Z,9.03
2023-04-11T22:52:47.046Z,7.30
2023-04-11T22:55:14.783Z,8.07
2023-04-11T22:57:42.437Z,12.50
2023-04-11T23:00:10.243Z,11.93
2023-04-11T23:02:37.904Z,6.50
2023-04-11T23:05:05.711Z,10.73
2023-04-11T23:07:33.222Z,5.83
2023-04-11T23:10:01.178Z,7.33
2023-04-11T23:12:31.918Z,12.27
2023-04-11T23:14:59.461Z,7.33
2023-04-11T23:17:27.027Z,8.10
2023-04-11T23:19:54.584Z,10.13
2023-04-11T23:22:22.066Z,10.17
2023-04-11T23:24:49.595Z,9.33
2023-04-11T23:27:17.136Z,8.47
2023-04-11T23:29:48.836Z,6.40
2023-04-11T23:32:16.396Z,7.83
2023-04-11T23:34:43.862Z,6.97
2023-04-11T23:37:11.370Z,8.70
2023-04-11T23:39:38.841Z,6.27
2023-04-11T23:42:06.609Z,3.63
2023-04-11T23:44:34.097Z,7.40
2023-04-11T23:47:01.666Z,6.57
2023-04-11T23:49:29.244Z,8.17
2023-04-11T23:51:56.753Z,8.47
2023-04-11T23:54:26.317Z,5.63
2023-04-11T23:56:55.105Z,6.40
2023-04-11T23:59:22.599Z,6.10
